createdAt,value
2024-01-04T00:00:18.543Z,101207.13
2024-01-04T00:02:46.711Z,101206.19
2024-01-04T00:05:14.840Z,101210.97
2024-01-04T00:07:43.186Z,101206.47
2024-01-04T00:10:11.754Z,101212.25
2024-01-04T00:12:43.712Z,101214.78
2024-01-04T00:15:11.851Z,101216.34
2024-01-04T00:17:40.283Z,101220.56
2024-01-04T00:20:08.869Z,101220.69
2024-01-04T00:22:37.410Z,101215.47
2024-01-04T00:25:05.956Z,101217.75
2024-01-04T00:27:34.118Z,101233.50
2024-01-04T00:30:02.249Z,101224.69
2024-01-04T00:32:31.753Z,101239.81
2024-01-04T00:35:00.190Z,101240.59
2024-01-04T00:37:28.533Z,101232.13
2024-01-04T00:39:56.500Z,101235.41
2024-01-04T00:42:24.798Z,101235.09
2024-01-04T00:44:52.940Z,101225.66
2024-01-04T00:47:21.032Z,101235.94
2024-01-04T00:49:49.293Z,101240.88
2024-01-04T00:52:17.641Z,101231.63
2024-01-04T00:54:45.728Z,101233.16
2024-01-04T00:57:14.049Z,101228.84
2024-01-04T00:59:42.108Z,101223.59
2024-01-04T01:02:10.107Z,101224.91
2024-01-04T01:04:39.309Z,101210.03
2024-01-04T01:07:07.971Z,101226.78
2024-01-04T01:09:36.110Z,101218.91
2024-01-04T01:12:04.511Z,101218.84
2024-01-04T01:14:32.733Z,101218.66
2024-01-04T01:17:00.756Z,101223.50
2024-01-04T01:19:29.321Z,101220.56
2024-01-04T01:21:57.468Z,101218.66
2024-01-04T01:24:25.421Z,101218.47
2024-01-04T01:26:53.675Z,101219.09
2024-01-04T01:29:21.732Z,101226.41
2024-01-04T01:31:49.886Z,101228.78
2024-01-04T01:34:18.227Z,101222.72
2024-01-04T01:36:47.534Z,101225.88
2024-01-04T01:39:15.592Z,101211.25
2024-01-04T01:41:43.763Z,101217.75
2024-01-04T01:44:13.088Z,101223.63
2024-01-04T01:46:42.399Z,101212.66
2024-01-04T01:49:10.930Z,101217.59
2024-01-04T01:51:39.555Z,101205.19
2024-01-04T01:54:08.437Z,101221.34
2024-01-04T01:56:37.141Z,101222.13
2024-01-04T01:59:11.742Z,101228.72
2024-01-04T02:01:46.519Z,101225.81
2024-01-04T02:04:14.546Z,101237.75
2024-01-04T02:06:42.630Z,101230.13
2024-01-04T02:09:10.849Z,101235.84
2024-01-04T02:11:39.166Z,101232.41
2024-01-04T02:14:07.346Z,101232.13
2024-01-04T02:16:35.471Z,101228.38
2024-01-04T02:19:04.580Z,101222.13
2024-01-04T02:21:32.530Z,101234.91
2024-01-04T02:24:00.705Z,101235.53
2024-01-04T02:26:28.994Z,101230.34
2024-01-04T02:28:57.061Z,101236.03
2024-01-04T02:31:25.452Z,101244.25
2024-01-04T02:33:53.742Z,101231.44
2024-01-04T02:36:21.944Z,101235.47
2024-01-04T02:38:50.082Z,101230.59
2024-01-04T02:41:18.308Z,101222.09
2024-01-04T02:43:46.445Z,101213.63
2024-01-04T02:46:14.447Z,101216.91
2024-01-04T02:48:42.525Z,101210.09
2024-01-04T02:51:10.857Z,101214.91
2024-01-04T02:53:38.933Z,101208.94
2024-01-04T02:56:07.175Z,101209.44
2024-01-04T02:58:35.301Z,101207.69
2024-01-04T03:01:03.754Z,101208.28
2024-01-04T03:03:31.859Z,101211.66
2024-01-04T03:05:59.902Z,101214.22
2024-01-04T03:08:27.942Z,101201.28
2024-01-04T03:10:55.983Z,101215.81
2024-01-04T03:13:25.688Z,101213.97
2024-01-04T03:15:53.717Z,101205.41
2024-01-04T03:18:21.934Z,101214.47
2024-01-04T03:20:50.056Z,101213.69
2024-01-04T03:23:18.182Z,101214.47
2024-01-04T03:25:46.174Z,101206.38
2024-01-04T03:28:14.187Z,101216.75
2024-01-04T03:30:42.334Z,101213.19
2024-01-04T03:33:10.376Z,101205.63
2024-01-04T03:35:38.463Z,101196.28
2024-01-04T03:38:07.062Z,101186.84
2024-01-04T03:40:35.085Z,101202.91
2024-01-04T03:43:04.235Z,101191.16
2024-01-04T03:45:35.689Z,101191.09
2024-01-04T03:48:03.890Z,101191.84
2024-01-04T03:50:31.986Z,101181.75
2024-01-04T03:53:00.115Z,101182.31
2024-01-04T03:55:28.074Z,101178.00
2024-01-04T03:57:56.089Z,101188.88
2024-01-04T04:00:24.313Z,101196.41
2024-01-04T04:02:53.385Z,101192.16
2024-01-04T04:05:21.401Z,101191.94
2024-01-04T04:07:49.459Z,101191.09
2024-01-04T04:10:17.904Z,101193.50
2024-01-04T04:12:46.314Z,101196.78
2024-01-04T04:15:15.007Z,101201.88
2024-01-04T04:17:43.170Z,101194.16
2024-01-04T04:20:11.815Z,101182.53
2024-01-04T04:22:39.813Z,101189.97
2024-01-04T04:25:08.031Z,101188.22
2024-01-04T04:27:36.136Z,101189.66
2024-01-04T04:30:04.578Z,101188.78
2024-01-04T04:32:32.606Z,101187.94
2024-01-04T04:35:00.684Z,101181.88
2024-01-04T04:37:28.853Z,101184.47
2024-01-04T04:39:57.328Z,101187.03
2024-01-04T04:42:25.337Z,101185.44
2024-01-04T04:44:53.438Z,101192.81
2024-01-04T04:47:21.384Z,101194.47
2024-01-04T04:49:49.350Z,101193.69
2024-01-04T04:52:17.465Z,101196.19
2024-01-04T04:54:45.437Z,101188.78
2024-01-04T04:57:13.584Z,101164.63
2024-01-04T04:59:41.770Z,101183.78
2024-01-04T05:02:09.827Z,101180.44
2024-01-04T05:04:37.879Z,101178.09
2024-01-04T05:07:06.784Z,101174.28
2024-01-04T05:09:34.727Z,101172.91
2024-01-04T05:12:02.920Z,101177.59
2024-01-04T05:14:31.017Z,101183.88
2024-01-04T05:16:59.066Z,101189.25
2024-01-04T05:19:27.186Z,101197.81
2024-01-04T05:21:55.265Z,101189.59
2024-01-04T05:24:23.279Z,101189.13
2024-01-04T05:26:51.398Z,101201.53
2024-01-04T05:29:19.533Z,101205.44
2024-01-04T05:31:47.458Z,101199.69
2024-01-04T05:34:15.497Z,101203.97
2024-01-04T05:36:43.539Z,101198.03
2024-01-04T05:39:12.654Z,101200.31
2024-01-04T05:41:40.603Z,101195.81
2024-01-04T05:44:08.691Z,101191.19
2024-01-04T05:46:36.799Z,101196.69
2024-01-04T05:49:04.925Z,101185.34
2024-01-04T05:51:42.136Z,101192.47
2024-01-04T05:54:11.913Z,101197.06
2024-01-04T05:56:40.641Z,101193.59
2024-01-04T05:59:08.665Z,101185.81
2024-01-04T06:01:41.030Z,101178.88
2024-01-04T06:04:09.154Z,101177.69
2024-01-04T06:06:37.578Z,101168.88
2024-01-04T06:09:05.905Z,101177.66
2024-01-04T06:11:33.957Z,101174.88
2024-01-04T06:14:02.021Z,101176.09
2024-01-04T06:16:30.228Z,101180.72
2024-01-04T06:18:58.331Z,101185.56
2024-01-04T06:21:27.136Z,101175.88
2024-01-04T06:23:56.859Z,101183.09
2024-01-04T06:26:26.238Z,101192.19
2024-01-04T06:28:54.155Z,101192.78
2024-01-04T06:31:22.347Z,101190.28
2024-01-04T06:33:50.542Z,101183.38
2024-01-04T06:36:18.698Z,101188.38
2024-01-04T06:38:46.748Z,101194.94
2024-01-04T06:41:14.810Z,101193.97
2024-01-04T06:43:42.848Z,101199.56
2024-01-04T06:46:14.158Z,101191.03
2024-01-04T06:48:42.770Z,101199.66
2024-01-04T06:51:11.691Z,101188.69
2024-01-04T06:53:39.727Z,101191.56
2024-01-04T06:56:08.057Z,101196.19
2024-01-04T06:58:37.307Z,101190.03
2024-01-04T07:01:05.409Z,101192.00
2024-01-04T07:03:33.707Z,101200.31
2024-01-04T07:06:01.842Z,101198.59
2024-01-04T07:08:30.294Z,101191.25
2024-01-04T07:10:58.220Z,101189.72
2024-01-04T07:13:27.644Z,101194.44
2024-01-04T07:15:56.378Z,101179.59
2024-01-04T07:18:24.448Z,101183.09
2024-01-04T07:20:52.533Z,101184.00
2024-01-04T07:23:21.885Z,101185.81
2024-01-04T07:25:49.785Z,101181.50
2024-01-04T07:28:19.059Z,101191.47
2024-01-04T07:30:47.917Z,101187.94
2024-01-04T07:33:17.115Z,101177.56
2024-01-04T07:35:45.250Z,101179.66
2024-01-04T07:38:13.191Z,101170.78
2024-01-04T07:40:41.150Z,101163.50
2024-01-04T07:43:09.243Z,101154.41
2024-01-04T07:45:38.083Z,101161.59
2024-01-04T07:48:06.676Z,101152.44
2024-01-04T07:50:35.021Z,101152.66
2024-01-04T07:53:02.922Z,101154.25
2024-01-04T07:55:30.889Z,101148.38
2024-01-04T07:57:58.841Z,101140.19
2024-01-04T08:00:26.985Z,101135.44
2024-01-04T08:02:54.954Z,101135.50
2024-01-04T08:05:22.952Z,101133.03
2024-01-04T08:07:51.482Z,101125.78
2024-01-04T08:10:19.379Z,101119.44
2024-01-04T08:12:47.687Z,101119.63
2024-01-04T08:15:15.857Z,101113.19
2024-01-04T08:17:44.225Z,101104.75
2024-01-04T08:20:16.001Z,101109.16
2024-01-04T08:22:44.288Z,101102.50
2024-01-04T08:25:12.263Z,101098.28
2024-01-04T08:27:40.286Z,101104.50
2024-01-04T08:30:09.103Z,101104.13
2024-01-04T08:32:37.211Z,101094.44
2024-01-04T08:35:06.064Z,101094.22
2024-01-04T08:37:35.866Z,101096.41
2024-01-04T08:40:03.970Z,101092.44
2024-01-04T08:42:32.253Z,101086.66
2024-01-04T08:45:00.682Z,101093.50
2024-01-04T08:47:28.820Z,101090.22
2024-01-04T08:50:00.985Z,101091.97
2024-01-04T08:52:29.948Z,101087.81
2024-01-04T08:54:58.300Z,101092.94
2024-01-04T08:57:26.485Z,101076.00
2024-01-04T08:59:54.502Z,101087.97
2024-01-04T09:02:22.648Z,101080.34
2024-01-04T09:04:50.858Z,101079.16
2024-01-04T09:07:20.857Z,101079.06
2024-01-04T09:09:48.762Z,101073.03
2024-01-04T09:12:17.466Z,101072.94
2024-01-04T09:14:47.959Z,101069.47
2024-01-04T09:17:16.033Z,101076.09
2024-01-04T09:19:44.214Z,101072.41
2024-01-04T09:22:12.319Z,101081.94
2024-01-04T09:24:40.775Z,101086.91
2024-01-04T09:27:08.782Z,101089.50
2024-01-04T09:29:36.763Z,101079.34
2024-01-04T09:32:05.175Z,101063.09
2024-01-04T09:34:33.255Z,101076.88
2024-01-04T09:37:02.685Z,101082.91
2024-01-04T09:39:30.761Z,101088.03
2024-01-04T09:41:58.813Z,101088.03
2024-01-04T09:44:26.760Z,101083.13
2024-01-04T09:46:56.712Z,101090.69
2024-01-04T09:49:25.354Z,101082.25
2024-01-04T09:51:56.000Z,101080.91
2024-01-04T09:54:26.081Z,101086.81
2024-01-04T09:56:56.626Z,101086.81
2024-01-04T09:59:24.814Z,101097.03
2024-01-04T10:01:53.670Z,101097.97
2024-01-04T10:04:22.853Z,101102.06
2024-01-04T10:06:57.510Z,101103.16
2024-01-04T10:09:25.489Z,101106.69
2024-01-04T10:12:13.191Z,101110.06
2024-01-04T10:14:41.395Z,101106.69
2024-01-04T10:17:12.453Z,101108.50
2024-01-04T10:19:42.512Z,101103.44
2024-01-04T10:22:10.718Z,101112.84
2024-01-04T10:24:40.559Z,101112.91
2024-01-04T10:27:10.728Z,101117.22
2024-01-04T10:29:40.376Z,101127.22
2024-01-04T10:32:12.161Z,101125.44
2024-01-04T10:34:41.512Z,101134.06
2024-01-04T10:37:13.237Z,101142.59
2024-01-04T10:39:42.614Z,101135.88
2024-01-04T10:42:11.411Z,101138.44
2024-01-04T10:44:40.263Z,101147.84
2024-01-04T10:47:11.667Z,101147.94
2024-01-04T10:49:44.242Z,101148.81
2024-01-04T10:52:17.362Z,101130.00
2024-01-04T10:54:45.959Z,101152.34
2024-01-04T10:57:14.969Z,101154.00
2024-01-04T10:59:46.019Z,101156.66
2024-01-04T11:02:17.444Z,101159.19
2024-01-04T11:04:46.825Z,101157.53
2024-01-04T11:07:19.371Z,101155.84
2024-01-04T11:09:47.605Z,101160.88
2024-01-04T11:12:18.037Z,101161.81
2024-01-04T11:14:46.150Z,101161.78
2024-01-04T11:17:23.965Z,101158.38
2024-01-04T11:20:16.360Z,101163.50
2024-01-04T11:23:10.258Z,101166.06
2024-01-04T11:25:44.080Z,101160.97
2024-01-04T11:28:17.070Z,101159.25
2024-01-04T11:30:54.578Z,101147.47
2024-01-04T11:33:30.530Z,101143.78
2024-01-04T11:35:59.481Z,101146.63
2024-01-04T11:38:36.091Z,101128.91
2024-01-04T11:41:05.159Z,101118.81
2024-01-04T11:43:38.224Z,101122.16
2024-01-04T11:46:24.227Z,101123.88
2024-01-04T11:48:57.240Z,101120.53
2024-01-04T11:51:46.721Z,101129.81
2024-01-04T11:54:17.491Z,101131.50
2024-01-04T11:56:46.266Z,101124.78
2024-01-04T11:59:15.766Z,101111.25
2024-01-04T12:01:45.326Z,101122.38
2024-01-04T12:04:14.885Z,101114.00
2024-01-04T12:06:44.628Z,101108.09
2024-01-04T12:09:20.273Z,101098.88
2024-01-04T12:11:59.177Z,101109.94
2024-01-04T12:14:30.916Z,101108.34
2024-01-04T12:17:01.552Z,101105.88
2024-01-04T12:19:29.725Z,101099.25
2024-01-04T12:21:57.967Z,101099.16
2024-01-04T12:24:27.281Z,101100.22
2024-01-04T12:26:56.015Z,101094.44
2024-01-04T12:29:24.118Z,101107.09
2024-01-04T12:31:53.505Z,101096.25
2024-01-04T12:34:21.724Z,101098.81
2024-01-04T12:36:51.037Z,101092.09
2024-01-04T12:39:19.170Z,101085.34
2024-01-04T12:41:48.157Z,101093.97
2024-01-04T12:44:16.930Z,101086.38
2024-01-04T12:46:46.331Z,101077.34
2024-01-04T12:49:18.943Z,101081.69
2024-01-04T12:51:48.743Z,101066.53
2024-01-04T12:54:17.057Z,101069.25
2024-01-04T12:56:45.443Z,101063.44
2024-01-04T12:59:14.601Z,101054.22
2024-01-04T13:01:42.754Z,101055.19
2024-01-04T13:04:10.842Z,101060.25
2024-01-04T13:06:39.161Z,101072.16
2024-01-04T13:09:07.692Z,101079.91
2024-01-04T13:11:35.978Z,101068.19
2024-01-04T13:14:04.466Z,101073.25
2024-01-04T13:16:32.860Z,101080.25
2024-01-04T13:19:01.098Z,101070.91
2024-01-04T13:21:29.298Z,101078.69
2024-01-04T13:23:57.335Z,101084.75
2024-01-04T13:26:25.378Z,101076.38
2024-01-04T13:28:53.385Z,101072.25
2024-01-04T13:31:22.379Z,101082.53
2024-01-04T13:33:50.982Z,101079.28
2024-01-04T13:36:21.476Z,101081.19
2024-01-04T13:38:49.989Z,101077.03
2024-01-04T13:41:20.837Z,101072.19
2024-01-04T13:43:49.492Z,101071.47
2024-01-04T13:46:17.558Z,101069.91
2024-01-04T13:48:46.820Z,101061.66
2024-01-04T13:51:15.153Z,101058.38
2024-01-04T13:53:43.982Z,101054.31
2024-01-04T13:56:12.243Z,101047.66
2024-01-04T13:58:40.218Z,101058.72
2024-01-04T14:01:08.582Z,101054.59
2024-01-04T14:03:36.780Z,101071.53
2024-01-04T14:06:06.173Z,101053.81
2024-01-04T14:08:36.146Z,101076.66
2024-01-04T14:11:05.181Z,101078.34
2024-01-04T14:13:33.213Z,101075.00
2024-01-04T14:16:02.079Z,101067.44
2024-01-04T14:18:30.523Z,101061.66
2024-01-04T14:20:58.688Z,101064.34
2024-01-04T14:23:26.834Z,101061.13
2024-01-04T14:25:55.015Z,101067.97
2024-01-04T14:28:23.039Z,101057.06
2024-01-04T14:30:51.210Z,101052.91
2024-01-04T14:33:25.150Z,101057.34
2024-01-04T14:36:00.947Z,101052.47
2024-01-04T14:38:29.021Z,101049.25
2024-01-04T14:40:57.072Z,101051.09
2024-01-04T14:43:25.119Z,101045.34
2024-01-04T14:45:53.317Z,101043.94
2024-01-04T14:48:21.735Z,101036.63
2024-01-04T14:50:50.361Z,101029.25
2024-01-04T14:53:18.553Z,101029.53
2024-01-04T14:55:46.571Z,101020.34
2024-01-04T14:58:14.772Z,101021.34
2024-01-04T15:00:42.865Z,101017.19
2024-01-04T15:03:11.928Z,101026.66
2024-01-04T15:05:41.611Z,101024.28
2024-01-04T15:08:09.743Z,101025.19
2024-01-04T15:10:37.769Z,101015.97
2024-01-04T15:13:07.568Z,101011.84
2024-01-04T15:15:37.940Z,101005.19
2024-01-04T15:18:08.578Z,101017.94
2024-01-04T15:20:38.351Z,101002.06
2024-01-04T15:23:06.454Z,100994.69
2024-01-04T15:25:34.904Z,100990.69
2024-01-04T15:28:04.690Z,100975.66
2024-01-04T15:30:33.558Z,100974.28
2024-01-04T15:33:01.727Z,100958.41
2024-01-04T15:35:31.085Z,100966.13
2024-01-04T15:37:59.662Z,100954.25
2024-01-04T15:40:27.678Z,100946.75
2024-01-04T15:42:57.190Z,100946.88
2024-01-04T15:45:25.368Z,100937.53
2024-01-04T15:47:54.743Z,100936.88
2024-01-04T15:50:23.971Z,100936.06
2024-01-04T15:52:53.411Z,100926.84
2024-01-04T15:55:21.396Z,100919.25
2024-01-04T15:57:49.648Z,100919.34
2024-01-04T16:00:18.126Z,100916.94
2024-01-04T16:02:46.040Z,100904.16
2024-01-04T16:05:15.051Z,100896.69
2024-01-04T16:07:43.137Z,100889.16
2024-01-04T16:10:11.456Z,100889.97
2024-01-04T16:12:39.987Z,100894.22
2024-01-04T16:15:08.486Z,100889.16
2024-01-04T16:17:36.962Z,100878.19
2024-01-04T16:20:05.353Z,100875.81
2024-01-04T16:22:33.469Z,100871.75
2024-01-04T16:25:01.992Z,100856.69
2024-01-04T16:27:30.065Z,100852.75
2024-01-04T16:29:58.080Z,100837.66
2024-01-04T16:32:26.022Z,100850.72
2024-01-04T16:34:54.109Z,100840.72
2024-01-04T16:37:22.079Z,100841.00
2024-01-04T16:39:50.005Z,100839.41
2024-01-04T16:42:18.764Z,100833.66
2024-01-04T16:44:46.775Z,100828.66
2024-01-04T16:47:16.046Z,100828.00
2024-01-04T16:49:44.318Z,100823.03
2024-01-04T16:52:12.291Z,100824.88
2024-01-04T16:54:41.672Z,100816.50
2024-01-04T16:57:09.955Z,100821.72
2024-01-04T16:59:38.038Z,100808.22
2024-01-04T17:02:06.211Z,100818.59
2024-01-04T17:04:34.243Z,100817.84
2024-01-04T17:07:02.724Z,100817.06
2024-01-04T17:09:30.740Z,100814.53
2024-01-04T17:11:58.943Z,100808.63
2024-01-04T17:14:26.994Z,100816.31
2024-01-04T17:16:57.196Z,100814.59
2024-01-04T17:19:26.010Z,100813.84
2024-01-04T17:21:54.064Z,100808.75
2024-01-04T17:24:22.272Z,100807.03
2024-01-04T17:26:50.554Z,100810.41
2024-01-04T17:29:18.923Z,100802.75
2024-01-04T17:31:46.981Z,100786.59
2024-01-04T17:34:15.374Z,100784.06
2024-01-04T17:36:45.247Z,100780.69
2024-01-04T17:39:13.465Z,100773.91
2024-01-04T17:41:47.316Z,100768.84
2024-01-04T17:44:19.635Z,100771.47
2024-01-04T17:46:47.905Z,100769.75
2024-01-04T17:49:16.042Z,100762.88
2024-01-04T17:51:44.638Z,100772.28
2024-01-04T17:54:13.649Z,100766.31
2024-01-04T17:56:41.646Z,100775.69
2024-01-04T17:59:09.603Z,100777.38
2024-01-04T18:01:37.773Z,100776.50
2024-01-04T18:04:06.218Z,100781.59
2024-01-04T18:06:34.356Z,100773.06
2024-01-04T18:09:02.501Z,100776.50
2024-01-04T18:11:32.680Z,100779.81
2024-01-04T18:14:00.725Z,100783.09
2024-01-04T18:16:28.762Z,100789.78
2024-01-04T18:18:56.979Z,100787.13
2024-01-04T18:21:25.282Z,100787.09
2024-01-04T18:23:53.360Z,100792.13
2024-01-04T18:26:21.636Z,100792.13
2024-01-04T18:28:49.667Z,100783.59
2024-01-04T18:31:17.786Z,100779.31
2024-01-04T18:33:45.935Z,100785.25
2024-01-04T18:36:14.030Z,100786.91
2024-01-04T18:38:47.719Z,100784.28
2024-01-04T18:41:19.664Z,100787.63
2024-01-04T18:43:48.188Z,100785.00
2024-01-04T18:46:16.255Z,100779.06
2024-01-04T18:48:44.549Z,100787.50
2024-01-04T18:51:13.733Z,100785.72
2024-01-04T18:53:41.680Z,100777.19
2024-01-04T18:56:09.722Z,100780.53
2024-01-04T18:58:37.834Z,100784.72
2024-01-04T19:01:06.115Z,100785.47
2024-01-04T19:03:34.446Z,100793.03
2024-01-04T19:06:02.837Z,100792.97
2024-01-04T19:08:30.971Z,100786.13
2024-01-04T19:11:00.362Z,100792.84
2024-01-04T19:13:29.144Z,100791.03
2024-01-04T19:16:00.559Z,100784.19
2024-01-04T19:18:29.271Z,100788.31
2024-01-04T19:20:57.613Z,100784.06
2024-01-04T19:23:26.479Z,100778.03
2024-01-04T19:25:54.519Z,100785.66
2024-01-04T19:28:22.673Z,100782.16
2024-01-04T19:30:50.980Z,100783.03
2024-01-04T19:33:19.467Z,100782.97
2024-01-04T19:35:47.850Z,100785.50
2024-01-04T19:38:16.095Z,100783.81
2024-01-04T19:40:45.102Z,100779.59
2024-01-04T19:43:13.271Z,100775.41
2024-01-04T19:45:42.939Z,100774.59
2024-01-04T19:48:12.357Z,100769.56
2024-01-04T19:50:40.384Z,100767.06
2024-01-04T19:53:08.350Z,100764.47
2024-01-04T19:55:36.510Z,100759.28
2024-01-04T19:58:04.737Z,100763.56
2024-01-04T20:00:33.016Z,100760.09
2024-01-04T20:03:01.156Z,100763.44
2024-01-04T20:05:31.611Z,100762.56
2024-01-04T20:08:00.496Z,100759.09
2024-01-04T20:10:28.944Z,100759.03
2024-01-04T20:12:57.207Z,100754.66
2024-01-04T20:15:25.192Z,100758.00
2024-01-04T20:17:54.891Z,100755.31
2024-01-04T20:20:23.875Z,100760.34
2024-01-04T20:22:52.015Z,100760.28
2024-01-04T20:25:20.069Z,100762.69
2024-01-04T20:27:48.408Z,100759.13
2024-01-04T20:30:16.543Z,100753.06
2024-01-04T20:32:46.191Z,100762.22
2024-01-04T20:35:14.504Z,100754.44
2024-01-04T20:37:42.677Z,100760.19
2024-01-04T20:40:10.940Z,100757.53
2024-01-04T20:42:39.258Z,100760.84
2024-01-04T20:45:08.568Z,100753.03
2024-01-04T20:47:36.640Z,100753.81
2024-01-04T20:50:04.997Z,100745.13
2024-01-04T20:52:32.962Z,100753.53
2024-01-04T20:55:00.941Z,100758.44
2024-01-04T20:57:29.084Z,100746.41
2024-01-04T20:59:57.262Z,100748.00
2024-01-04T21:02:25.491Z,100751.28
2024-01-04T21:05:02.741Z,100758.78
2024-01-04T21:07:30.758Z,100749.25
2024-01-04T21:09:58.959Z,100755.91
2024-01-04T21:12:28.237Z,100759.97
2024-01-04T21:14:56.458Z,100753.81
2024-01-04T21:17:24.614Z,100753.72
2024-01-04T21:19:52.828Z,100751.06
2024-01-04T21:22:21.356Z,100756.00
2024-01-04T21:24:49.387Z,100748.22
2024-01-04T21:27:17.876Z,100749.94
2024-01-04T21:29:46.203Z,100750.69
2024-01-04T21:32:14.286Z,100746.44
2024-01-04T21:34:42.641Z,100749.88
2024-01-04T21:37:10.697Z,100733.72
2024-01-04T21:39:44.983Z,100741.44
2024-01-04T21:42:30.856Z,100729.56
2024-01-04T21:45:02.232Z,100738.94
2024-01-04T21:47:30.688Z,100735.66
2024-01-04T21:50:08.028Z,100737.34
2024-01-04T21:52:35.914Z,100732.34
2024-01-04T21:55:04.381Z,100725.56
2024-01-04T21:57:32.971Z,100731.47
2024-01-04T22:00:04.290Z,100724.75
2024-01-04T22:02:32.684Z,100731.47
2024-01-04T22:05:00.971Z,100729.00
2024-01-04T22:07:29.021Z,100705.06
2024-01-04T22:09:57.259Z,100720.47
2024-01-04T22:12:25.643Z,100719.72
2024-01-04T22:14:54.158Z,100722.28
2024-01-04T22:17:22.318Z,100721.44
2024-01-04T22:19:50.502Z,100720.63
2024-01-04T22:22:18.558Z,100708.75
2024-01-04T22:24:47.722Z,100706.31
2024-01-04T22:27:15.791Z,100696.97
2024-01-04T22:29:43.796Z,100687.72
2024-01-04T22:32:11.762Z,100694.53
2024-01-04T22:34:40.187Z,100696.22
2024-01-04T22:37:20.598Z,100696.25
2024-01-04T22:39:48.686Z,100689.47
2024-01-04T22:42:16.672Z,100685.28
2024-01-04T22:44:44.942Z,100685.22
2024-01-04T22:47:13.394Z,100669.84
2024-01-04T22:49:41.496Z,100688.66
2024-01-04T22:52:10.675Z,100684.50
2024-01-04T22:54:38.929Z,100686.16
2024-01-04T22:57:07.275Z,100683.56
2024-01-04T22:59:36.276Z,100676.78
2024-01-04T23:02:06.771Z,100674.38
2024-01-04T23:04:36.946Z,100671.75
2024-01-04T23:07:05.357Z,100672.66
2024-01-04T23:09:33.868Z,100680.25
2024-01-04T23:12:02.008Z,100676.84
2024-01-04T23:14:30.024Z,100674.28
2024-01-04T23:17:00.043Z,100664.13
2024-01-04T23:19:28.309Z,100670.03
2024-01-04T23:21:56.579Z,100671.72
2024-01-04T23:24:24.749Z,100671.59
2024-01-04T23:26:53.018Z,100662.28
2024-01-04T23:29:21.135Z,100669.09
2024-01-04T23:31:49.311Z,100664.81
2024-01-04T23:34:17.653Z,100656.28
2024-01-04T23:36:46.073Z,100660.53
2024-01-04T23:39:14.402Z,100662.25
2024-01-04T23:41:43.030Z,100657.94
2024-01-04T23:44:11.511Z,100662.19
2024-01-04T23:46:39.904Z,100654.56
2024-01-04T23:49:09.647Z,100654.56
2024-01-04T23:51:41.214Z,100653.69
2024-01-04T23:54:10.156Z,100645.13
2024-01-04T23:56:38.403Z,100653.63
2024-01-04T23:59:06.682Z,100645.97
